Terminal Aerodrome Forecast
Issued by NWS Grand Junction, CO

Home | Current Version | Previous Version | Text Only | Print | Product List | Glossary On
Versions: 1 2 3 4 5 6 7 8 9 10 11 12 13 14 15 16 17 18 19 20 21 22 23 24 25 26 27
000
FTUS45 KGJT 231720
TAFGJT
TAF
KGJT 231720Z 2318/2418 15005KT P6SM SCT150
     FM231900 23008KT P6SM FEW110 SCT150
     FM232200 21012G20KT P6SM VCTS SCT110CB BKN200
      TEMPO 2322/2402 VRB20G30KT
     FM240200 14012G22KT P6SM VCTS SCT100CB BKN150
     FM240600 11013KT P6SM FEW120 BKN150=

USA.gov is the U.S. government's official web portal to all federal, state and local government web resources and services.